sensor_id;sensor_type;location;lat;lon;timestamp;noise_LAeq;noise_LA_min;noise_LA_max;noise_LA01;noise_LA95
66747;Laerm;53658;50.742;10.864;2022-09-01T00:00:48;40.10;36.91;55.75;;
66747;Laerm;53658;50.742;10.864;2022-09-01T00:03:18;40.07;37.32;55.96;;
66747;Laerm;53658;50.742;10.864;2022-09-01T00:05:48;40.08;37.32;51.98;;
66747;Laerm;53658;50.742;10.864;2022-09-01T00:08:20;40.68;37.32;54.96;;
66747;Laerm;53658;50.742;10.864;2022-09-01T00:10:47;40.35;36.91;50.77;;
66747;Laerm;53658;50.742;10.864;2022-09-01T00:13:13;39.97;37.52;54.38;;
66747;Laerm;53658;50.742;10.864;2022-09-01T00:15:39;39.79;37.52;57.70;;
66747;Laerm;53658;50.742;10.864;2022-09-01T00:18:05;39.75;36.69;51.45;;
66747;Laerm;53658;50.742;10.864;2022-09-01T00:20:31;39.73;37.32;50.32;;
66747;Laerm;53658;50.742;10.864;2022-09-01T00:22:57;39.85;36.91;57.84;;
66747;Laerm;53658;50.742;10.864;2022-09-01T00:25:26;39.78;37.32;50.87;;
66747;Laerm;53658;50.742;10.864;2022-09-01T00:27:52;39.73;37.12;52.38;;
66747;Laerm;53658;50.742;10.864;2022-09-01T00:30:18;39.61;37.12;42.03;;
66747;Laerm;53658;50.742;10.864;2022-09-01T00:32:44;39.66;36.69;42.65;;
66747;Laerm;53658;50.742;10.864;2022-09-01T00:35:13;39.67;36.69;42.09;;
66747;Laerm;53658;50.742;10.864;2022-09-01T00:37:40;39.58;36.69;47.84;;
66747;Laerm;53658;50.742;10.864;2022-09-01T00:40:06;39.58;36.69;42.03;;
66747;Laerm;53658;50.742;10.864;2022-09-01T00:42:33;39.68;36.45;56.40;;
66747;Laerm;53658;50.742;10.864;2022-09-01T00:45:02;39.61;36.20;58.79;;
66747;Laerm;53658;50.742;10.864;2022-09-01T00:47:28;39.41;36.69;54.83;;
66747;Laerm;53658;50.742;10.864;2022-09-01T00:49:54;39.42;36.45;48.54;;
66747;Laerm;53658;50.742;10.864;2022-09-01T00:52:28;39.43;36.91;52.09;;
66747;Laerm;53658;50.742;10.864;2022-09-01T00:55:07;39.43;36.20;54.48;;
66747;Laerm;53658;50.742;10.864;2022-09-01T00:57:34;39.33;36.45;49.28;;
66747;Laerm;53658;50.742;10.864;2022-09-01T01:00:07;39.42;36.69;44.65;;
66747;Laerm;53658;50.742;10.864;2022-09-01T01:02:36;39.51;36.20;58.35;;
66747;Laerm;53658;50.742;10.864;2022-09-01T01:05:05;39.32;36.45;51.33;;
66747;Laerm;53658;50.742;10.864;2022-09-01T01:07:33;39.24;36.45;47.28;;
66747;Laerm;53658;50.742;10.864;2022-09-01T01:10:05;39.30;36.56;49.78;;
66747;Laerm;53658;50.742;10.864;2022-09-01T01:12:32;39.33;36.45;47.88;;
66747;Laerm;53658;50.742;10.864;2022-09-01T01:15:03;39.27;35.94;51.26;;
66747;Laerm;53658;50.742;10.864;2022-09-01T01:17:31;39.47;36.56;62.51;;
66747;Laerm;53658;50.742;10.864;2022-09-01T01:19:58;39.34;35.94;53.34;;
66747;Laerm;53658;50.742;10.864;2022-09-01T01:28:04;39.35;35.59;54.14;;
66747;Laerm;53658;50.742;10.864;2022-09-01T01:30:30;39.43;36.20;55.43;;
66747;Laerm;53658;50.742;10.864;2022-09-01T01:32:58;39.29;36.69;50.13;;
66747;Laerm;53658;50.742;10.864;2022-09-01T01:35:25;39.26;36.45;48.00;;
66747;Laerm;53658;50.742;10.864;2022-09-01T01:37:52;39.25;36.45;50.77;;
66747;Laerm;53658;50.742;10.864;2022-09-01T01:40:20;39.24;36.20;47.83;;
66747;Laerm;53658;50.742;10.864;2022-09-01T01:42:52;39.24;36.45;41.53;;
66747;Laerm;53658;50.742;10.864;2022-09-01T01:45:21;39.18;36.20;41.30;;
66747;Laerm;53658;50.742;10.864;2022-09-01T01:47:50;39.22;36.45;57.01;;
66747;Laerm;53658;50.742;10.864;2022-09-01T01:50:30;39.29;35.66;41.53;;
66747;Laerm;53658;50.742;10.864;2022-09-01T01:52:58;39.34;36.45;43.44;;
66747;Laerm;53658;50.742;10.864;2022-09-01T01:55:26;39.19;36.45;43.77;;
66747;Laerm;53658;50.742;10.864;2022-09-01T01:57:58;39.12;36.20;41.30;;
66747;Laerm;53658;50.742;10.864;2022-09-01T02:00:30;39.65;36.45;55.13;;
66747;Laerm;53658;50.742;10.864;2022-09-01T02:03:00;39.56;36.91;51.95;;
66747;Laerm;53658;50.742;10.864;2022-09-01T02:05:32;39.45;36.69;42.35;;
66747;Laerm;53658;50.742;10.864;2022-09-01T02:08:07;39.23;35.94;41.38;;
66747;Laerm;53658;50.742;10.864;2022-09-01T02:10:40;39.21;36.20;47.32;;
66747;Laerm;53658;50.742;10.864;2022-09-01T02:13:08;39.19;36.45;42.41;;
66747;Laerm;53658;50.742;10.864;2022-09-01T02:15:50;39.10;36.20;49.56;;
66747;Laerm;53658;50.742;10.864;2022-09-01T02:18:22;39.22;36.20;51.39;;
66747;Laerm;53658;50.742;10.864;2022-09-01T02:20:50;39.07;36.20;51.16;;
66747;Laerm;53658;50.742;10.864;2022-09-01T02:23:19;38.93;35.66;44.80;;
66747;Laerm;53658;50.742;10.864;2022-09-01T02:25:51;38.96;36.20;53.02;;
66747;Laerm;53658;50.742;10.864;2022-09-01T02:28:21;38.94;35.66;46.30;;
66747;Laerm;53658;50.742;10.864;2022-09-01T02:30:51;38.95;36.20;45.48;;
66747;Laerm;53658;50.742;10.864;2022-09-01T02:33:20;38.92;35.36;44.51;;
66747;Laerm;53658;50.742;10.864;2022-09-01T02:35:53;38.97;35.94;45.30;;
66747;Laerm;53658;50.742;10.864;2022-09-01T02:38:20;38.93;36.20;46.93;;
66747;Laerm;53658;50.742;10.864;2022-09-01T02:40:48;39.02;36.20;54.33;;
66747;Laerm;53658;50.742;10.864;2022-09-01T02:43:16;38.99;35.66;47.55;;
66747;Laerm;53658;50.742;10.864;2022-09-01T02:45:50;38.89;36.20;45.54;;
66747;Laerm;53658;50.742;10.864;2022-09-01T02:48:24;38.84;35.66;41.38;;
66747;Laerm;53658;50.742;10.864;2022-09-01T02:50:51;38.91;35.66;43.04;;
66747;Laerm;53658;50.742;10.864;2022-09-01T02:53:17;38.93;35.94;51.42;;
66747;Laerm;53658;50.742;10.864;2022-09-01T02:55:45;38.85;35.36;46.91;;
66747;Laerm;53658;50.742;10.864;2022-09-01T02:58:12;38.81;35.66;41.38;;
66747;Laerm;53658;50.742;10.864;2022-09-01T03:00:45;38.86;35.94;42.13;;
66747;Laerm;53658;50.742;10.864;2022-09-01T03:03:17;38.89;36.10;44.51;;
66747;Laerm;53658;50.742;10.864;2022-09-01T03:05:44;38.92;35.04;45.86;;
66747;Laerm;53658;50.742;10.864;2022-09-01T03:08:11;38.85;35.04;43.72;;
66747;Laerm;53658;50.742;10.864;2022-09-01T03:10:43;38.86;35.94;41.48;;
66747;Laerm;53658;50.742;10.864;2022-09-01T03:13:16;38.87;36.20;45.94;;
66747;Laerm;53658;50.742;10.864;2022-09-01T03:15:42;39.84;33.90;69.05;;
66747;Laerm;53658;50.742;10.864;2022-09-01T03:18:11;38.86;35.94;51.65;;
66747;Laerm;53658;50.742;10.864;2022-09-01T03:20:40;38.85;35.66;47.59;;
66747;Laerm;53658;50.742;10.864;2022-09-01T03:23:10;38.86;35.66;47.12;;
66747;Laerm;53658;50.742;10.864;2022-09-01T03:25:41;41.00;35.66;72.98;;
66747;Laerm;53658;50.742;10.864;2022-09-01T03:28:08;39.05;35.94;43.81;;
66747;Laerm;53658;50.742;10.864;2022-09-01T03:30:36;38.98;35.66;41.68;;
66747;Laerm;53658;50.742;10.864;2022-09-01T03:33:06;38.95;35.66;50.00;;
66747;Laerm;53658;50.742;10.864;2022-09-01T03:35:32;38.93;35.36;44.47;;
66747;Laerm;53658;50.742;10.864;2022-09-01T03:38:00;38.84;35.94;46.15;;
66747;Laerm;53658;50.742;10.864;2022-09-01T03:40:32;38.87;35.94;46.15;;
66747;Laerm;53658;50.742;10.864;2022-09-01T03:43:00;38.89;34.69;51.35;;
66747;Laerm;53658;50.742;10.864;2022-09-01T03:45:28;39.02;35.36;48.48;;
66747;Laerm;53658;50.742;10.864;2022-09-01T03:47:55;39.02;35.94;49.78;;
66747;Laerm;53658;50.742;10.864;2022-09-01T03:50:24;38.77;35.36;45.97;;
66747;Laerm;53658;50.742;10.864;2022-09-01T03:52:53;38.81;35.36;41.22;;
66747;Laerm;53658;50.742;10.864;2022-09-01T03:55:25;38.85;35.94;54.51;;
66747;Laerm;53658;50.742;10.864;2022-09-01T03:57:54;38.86;35.66;45.23;;
66747;Laerm;53658;50.742;10.864;2022-09-01T04:00:23;38.85;35.66;42.74;;
66747;Laerm;53658;50.742;10.864;2022-09-01T04:02:52;38.85;35.66;44.87;;
66747;Laerm;53658;50.742;10.864;2022-09-01T04:05:21;38.97;35.36;55.42;;
66747;Laerm;53658;50.742;10.864;2022-09-01T04:07:50;38.85;35.94;51.12;;
66747;Laerm;53658;50.742;10.864;2022-09-01T04:10:17;38.89;35.66;56.26;;
66747;Laerm;53658;50.742;10.864;2022-09-01T04:12:44;38.82;35.66;55.42;;
66747;Laerm;53658;50.742;10.864;2022-09-01T04:15:13;38.77;35.94;45.57;;
66747;Laerm;53658;50.742;10.864;2022-09-01T04:17:43;38.79;35.66;48.57;;
66747;Laerm;53658;50.742;10.864;2022-09-01T04:20:28;38.81;36.10;41.06;;
66747;Laerm;53658;50.742;10.864;2022-09-01T04:22:54;38.81;35.94;41.06;;
66747;Laerm;53658;50.742;10.864;2022-09-01T04:25:22;38.83;35.66;41.89;;
66747;Laerm;53658;50.742;10.864;2022-09-01T04:27:51;38.75;35.66;41.14;;
66747;Laerm;53658;50.742;10.864;2022-09-01T04:30:23;38.77;35.66;49.14;;
66747;Laerm;53658;50.742;10.864;2022-09-01T04:32:56;42.61;33.44;76.41;;
66747;Laerm;53658;50.742;10.864;2022-09-01T04:35:23;39.15;35.66;50.96;;
66747;Laerm;53658;50.742;10.864;2022-09-01T04:37:58;39.19;36.20;42.22;;
66747;Laerm;53658;50.742;10.864;2022-09-01T04:40:24;38.90;35.66;41.30;;
66747;Laerm;53658;50.742;10.864;2022-09-01T04:42:53;38.77;35.94;43.28;;
66747;Laerm;53658;50.742;10.864;2022-09-01T04:45:19;38.74;35.66;48.00;;
66747;Laerm;53658;50.742;10.864;2022-09-01T04:47:49;38.73;35.04;46.05;;
66747;Laerm;53658;50.742;10.864;2022-09-01T04:50:17;38.81;35.86;50.78;;
66747;Laerm;53658;50.742;10.864;2022-09-01T04:53:03;38.72;35.04;44.23;;
66747;Laerm;53658;50.742;10.864;2022-09-01T04:55:38;38.74;35.94;47.65;;
66747;Laerm;53658;50.742;10.864;2022-09-01T04:58:04;38.64;35.36;44.11;;
66747;Laerm;53658;50.742;10.864;2022-09-01T05:00:30;38.67;35.66;52.95;;
66747;Laerm;53658;50.742;10.864;2022-09-01T05:03:00;38.70;34.69;50.75;;
66747;Laerm;53658;50.742;10.864;2022-09-01T05:05:43;38.67;34.69;40.98;;
66747;Laerm;53658;50.742;10.864;2022-09-01T05:08:18;38.64;35.31;40.80;;
66747;Laerm;53658;50.742;10.864;2022-09-01T05:10:47;38.62;35.36;40.98;;
66747;Laerm;53658;50.742;10.864;2022-09-01T05:13:30;38.72;35.66;47.96;;
66747;Laerm;53658;50.742;10.864;2022-09-01T05:16:07;51.95;35.66;88.22;;
66747;Laerm;53658;50.742;10.864;2022-09-01T05:18:38;38.66;35.66;42.76;;
66747;Laerm;53658;50.742;10.864;2022-09-01T05:21:07;38.66;35.66;41.38;;
66747;Laerm;53658;50.742;10.864;2022-09-01T05:23:37;38.63;35.36;42.29;;
66747;Laerm;53658;50.742;10.864;2022-09-01T05:26:12;38.62;35.36;45.72;;
66747;Laerm;53658;50.742;10.864;2022-09-01T05:28:44;38.63;35.04;45.91;;
66747;Laerm;53658;50.742;10.864;2022-09-01T05:31:10;45.44;32.35;80.05;;
66747;Laerm;53658;50.742;10.864;2022-09-01T05:33:38;38.82;35.36;56.25;;
66747;Laerm;53658;50.742;10.864;2022-09-01T05:36:12;38.84;35.36;60.41;;
66747;Laerm;53658;50.742;10.864;2022-09-01T05:38:39;38.71;35.94;43.33;;
66747;Laerm;53658;50.742;10.864;2022-09-01T05:41:10;38.68;35.36;48.39;;
66747;Laerm;53658;50.742;10.864;2022-09-01T05:43:40;40.39;35.66;70.87;;
66747;Laerm;53658;50.742;10.864;2022-09-01T05:46:16;38.82;35.36;41.89;;
66747;Laerm;53658;50.742;10.864;2022-09-01T05:48:45;38.64;35.36;40.98;;
66747;Laerm;53658;50.742;10.864;2022-09-01T05:51:18;38.74;35.36;50.48;;
66747;Laerm;53658;50.742;10.864;2022-09-01T05:53:45;39.58;35.66;66.07;;
66747;Laerm;53658;50.742;10.864;2022-09-01T05:56:12;38.63;35.36;48.84;;
66747;Laerm;53658;50.742;10.864;2022-09-01T05:58:40;38.55;35.04;47.34;;
66747;Laerm;53658;50.742;10.864;2022-09-01T06:01:15;38.68;35.01;42.59;;
66747;Laerm;53658;50.742;10.864;2022-09-01T06:03:42;38.79;35.04;52.04;;
66747;Laerm;53658;50.742;10.864;2022-09-01T06:06:10;38.82;35.04;51.27;;
66747;Laerm;53658;50.742;10.864;2022-09-01T06:08:38;38.84;35.36;44.76;;
66747;Laerm;53658;50.742;10.864;2022-09-01T06:11:08;38.89;35.04;45.01;;
66747;Laerm;53658;50.742;10.864;2022-09-01T06:13:38;47.95;35.36;83.59;;
66747;Laerm;53658;50.742;10.864;2022-09-01T06:16:08;40.16;35.36;48.91;;
66747;Laerm;53658;50.742;10.864;2022-09-01T06:18:35;60.60;35.04;96.79;;
66747;Laerm;53658;50.742;10.864;2022-09-01T06:21:03;42.00;35.66;71.99;;
66747;Laerm;53658;50.742;10.864;2022-09-01T06:23:30;40.69;35.59;48.23;;
66747;Laerm;53658;50.742;10.864;2022-09-01T06:25:56;40.64;35.66;48.42;;
66747;Laerm;53658;50.742;10.864;2022-09-01T06:28:24;40.85;35.94;49.27;;
66747;Laerm;53658;50.742;10.864;2022-09-01T06:30:52;40.74;35.94;46.64;;
66747;Laerm;53658;50.742;10.864;2022-09-01T06:33:18;40.71;35.66;54.18;;
66747;Laerm;53658;50.742;10.864;2022-09-01T06:35:46;54.17;33.90;90.21;;
66747;Laerm;53658;50.742;10.864;2022-09-01T06:38:13;60.76;34.69;96.57;;
66747;Laerm;53658;50.742;10.864;2022-09-01T06:40:44;40.86;36.20;56.73;;
66747;Laerm;53658;50.742;10.864;2022-09-01T06:43:13;51.28;36.45;87.11;;
66747;Laerm;53658;50.742;10.864;2022-09-01T06:45:46;40.76;36.98;53.52;;
66747;Laerm;53658;50.742;10.864;2022-09-01T06:48:20;41.14;36.20;50.83;;
66747;Laerm;53658;50.742;10.864;2022-09-01T06:50:48;40.33;36.91;51.77;;
66747;Laerm;53658;50.742;10.864;2022-09-01T06:53:14;51.85;35.94;87.75;;
66747;Laerm;53658;50.742;10.864;2022-09-01T06:55:47;40.61;36.91;54.81;;
66747;Laerm;53658;50.742;10.864;2022-09-01T06:58:14;40.51;37.70;48.16;;
66747;Laerm;53658;50.742;10.864;2022-09-01T07:00:45;40.49;37.12;53.05;;
66747;Laerm;53658;50.742;10.864;2022-09-01T07:03:13;40.13;37.32;53.74;;
66747;Laerm;53658;50.742;10.864;2022-09-01T07:06:10;45.07;36.20;80.13;;
66747;Laerm;53658;50.742;10.864;2022-09-01T07:08:57;40.35;36.20;45.17;;
66747;Laerm;53658;50.742;10.864;2022-09-01T07:11:33;39.34;35.66;48.71;;
66747;Laerm;53658;50.742;10.864;2022-09-01T07:14:04;49.81;35.04;85.69;;
66747;Laerm;53658;50.742;10.864;2022-09-01T07:16:33;39.14;35.04;42.09;;
66747;Laerm;53658;50.742;10.864;2022-09-01T07:19:04;39.36;35.94;46.62;;
66747;Laerm;53658;50.742;10.864;2022-09-01T07:21:34;39.60;35.94;51.34;;
66747;Laerm;53658;50.742;10.864;2022-09-01T07:24:00;39.54;35.66;46.30;;
66747;Laerm;53658;50.742;10.864;2022-09-01T07:26:31;40.07;36.20;50.47;;
66747;Laerm;53658;50.742;10.864;2022-09-01T07:28:58;40.35;37.52;53.90;;
66747;Laerm;53658;50.742;10.864;2022-09-01T07:31:28;40.63;38.05;49.43;;
66747;Laerm;53658;50.742;10.864;2022-09-01T07:34:00;40.39;38.21;46.57;;
66747;Laerm;53658;50.742;10.864;2022-09-01T07:36:29;40.17;37.88;43.24;;
66747;Laerm;53658;50.742;10.864;2022-09-01T07:38:56;40.09;37.52;41.89;;
66747;Laerm;53658;50.742;10.864;2022-09-01T07:41:25;40.04;37.70;41.96;;
66747;Laerm;53658;50.742;10.864;2022-09-01T07:44:09;40.08;37.88;41.82;;
66747;Laerm;53658;50.742;10.864;2022-09-01T07:46:57;40.04;37.70;41.89;;
66747;Laerm;53658;50.742;10.864;2022-09-01T07:49:23;39.98;37.32;42.09;;
66747;Laerm;53658;50.742;10.864;2022-09-01T07:51:50;39.89;37.12;41.75;;
66747;Laerm;53658;50.742;10.864;2022-09-01T07:54:18;39.44;36.20;41.61;;
66747;Laerm;53658;50.742;10.864;2022-09-01T07:56:44;39.00;35.04;42.88;;
66747;Laerm;53658;50.742;10.864;2022-09-01T07:59:11;38.85;35.36;41.38;;
66747;Laerm;53658;50.742;10.864;2022-09-01T08:01:46;38.73;34.31;41.82;;
66747;Laerm;53658;50.742;10.864;2022-09-01T08:04:13;38.06;33.55;40.62;;
66747;Laerm;53658;50.742;10.864;2022-09-01T08:06:40;38.19;33.90;40.71;;
66747;Laerm;53658;50.742;10.864;2022-09-01T08:09:07;37.98;32.93;40.80;;
66747;Laerm;53658;50.742;10.864;2022-09-01T08:11:35;37.95;32.35;40.71;;
66747;Laerm;53658;50.742;10.864;2022-09-01T08:14:02;37.84;33.44;40.62;;
66747;Laerm;53658;50.742;10.864;2022-09-01T08:16:29;37.83;32.93;41.55;;
66747;Laerm;53658;50.742;10.864;2022-09-01T08:18:58;37.66;31.68;40.33;;
66747;Laerm;53658;50.742;10.864;2022-09-01T08:21:32;37.56;31.68;40.71;;
66747;Laerm;53658;50.742;10.864;2022-09-01T08:24:05;37.61;31.68;40.80;;
66747;Laerm;53658;50.742;10.864;2022-09-01T08:26:34;37.47;30.89;40.33;;
66747;Laerm;53658;50.742;10.864;2022-09-01T08:29:01;37.29;30.89;40.33;;
66747;Laerm;53658;50.742;10.864;2022-09-01T08:31:35;37.21;30.89;40.13;;
66747;Laerm;53658;50.742;10.864;2022-09-01T08:34:01;37.22;29.92;40.43;;
66747;Laerm;53658;50.742;10.864;2022-09-01T08:36:30;37.25;31.68;40.71;;
66747;Laerm;53658;50.742;10.864;2022-09-01T08:38:57;37.22;30.89;40.53;;
66747;Laerm;53658;50.742;10.864;2022-09-01T08:41:42;37.13;29.92;40.33;;
66747;Laerm;53658;50.742;10.864;2022-09-01T08:46:47;37.10;29.92;40.13;;
66747;Laerm;53658;50.742;10.864;2022-09-01T08:49:22;36.96;29.92;40.71;;
66747;Laerm;53658;50.742;10.864;2022-09-01T08:52:27;36.96;29.92;40.62;;
66747;Laerm;53658;50.742;10.864;2022-09-01T08:55:18;36.97;28.67;40.03;;
66747;Laerm;53658;50.742;10.864;2022-09-01T08:57:47;36.95;28.67;39.92;;
66747;Laerm;53658;50.742;10.864;2022-09-01T09:00:25;36.84;28.67;40.53;;
66747;Laerm;53658;50.742;10.864;2022-09-01T09:03:11;36.86;29.92;39.81;;
66747;Laerm;53658;50.742;10.864;2022-09-01T09:06:01;36.90;28.67;40.33;;
66747;Laerm;53658;50.742;10.864;2022-09-01T09:09:05;36.91;28.67;39.92;;
66747;Laerm;53658;50.742;10.864;2022-09-01T09:11:59;36.84;26.91;40.03;;
66747;Laerm;53658;50.742;10.864;2022-09-01T09:17:21;36.80;28.67;40.27;;
66747;Laerm;53658;50.742;10.864;2022-09-01T09:19:48;36.70;29.92;40.13;;
66747;Laerm;53658;50.742;10.864;2022-09-01T09:22:16;36.84;28.67;40.53;;
66747;Laerm;53658;50.742;10.864;2022-09-01T09:25:28;36.87;30.89;40.62;;
66747;Laerm;53658;50.742;10.864;2022-09-01T09:27:41;36.63;28.67;39.92;;
66747;Laerm;53658;50.742;10.864;2022-09-01T09:33:05;36.94;30.89;40.23;;
66747;Laerm;53658;50.742;10.864;2022-09-01T09:35:40;36.86;31.68;40.33;;
66747;Laerm;53658;50.742;10.864;2022-09-01T09:38:21;36.64;28.67;40.13;;
66747;Laerm;53658;50.742;10.864;2022-09-01T09:41:15;36.76;26.91;40.23;;
66747;Laerm;53658;50.742;10.864;2022-09-01T09:44:01;37.06;29.92;40.89;;
66747;Laerm;53658;50.742;10.864;2022-09-01T09:49:10;37.00;30.89;40.13;;
66747;Laerm;53658;50.742;10.864;2022-09-01T09:51:38;37.16;31.68;40.03;;
66747;Laerm;53658;50.742;10.864;2022-09-01T09:59:39;37.30;30.89;42.03;;
66747;Laerm;53658;50.742;10.864;2022-09-01T10:02:21;36.91;28.67;40.03;;
66747;Laerm;53658;50.742;10.864;2022-09-01T10:04:48;36.84;26.91;40.89;;
66747;Laerm;53658;50.742;10.864;2022-09-01T10:09:50;36.80;26.91;39.70;;
66747;Laerm;53658;50.742;10.864;2022-09-01T10:12:17;36.86;26.91;40.80;;
66747;Laerm;53658;50.742;10.864;2022-09-01T10:14:53;36.88;29.92;40.33;;
66747;Laerm;53658;50.742;10.864;2022-09-01T10:17:33;37.29;30.89;40.53;;
66747;Laerm;53658;50.742;10.864;2022-09-01T10:20:05;37.36;32.35;40.53;;
66747;Laerm;53658;50.742;10.864;2022-09-01T10:22:34;37.24;29.57;40.80;;
66747;Laerm;53658;50.742;10.864;2022-09-01T10:25:03;37.02;30.89;41.38;;
66747;Laerm;53658;50.742;10.864;2022-09-01T10:27:34;36.90;28.67;41.68;;
66747;Laerm;53658;50.742;10.864;2022-09-01T10:30:12;36.69;28.67;40.03;;
66747;Laerm;53658;50.742;10.864;2022-09-01T10:32:56;36.87;29.92;40.89;;
66747;Laerm;53658;50.742;10.864;2022-09-01T10:35:30;37.01;29.92;42.98;;
66747;Laerm;53658;50.742;10.864;2022-09-01T10:38:09;37.59;28.67;42.41;;
66747;Laerm;53658;50.742;10.864;2022-09-01T10:40:44;36.87;29.92;41.38;;
66747;Laerm;53658;50.742;10.864;2022-09-01T10:46:08;36.93;28.67;40.89;;
66747;Laerm;53658;50.742;10.864;2022-09-01T10:48:34;36.74;26.91;41.14;;
66747;Laerm;53658;50.742;10.864;2022-09-01T11:04:07;36.80;26.91;40.62;;
66747;Laerm;53658;50.742;10.864;2022-09-01T11:06:57;37.04;26.91;42.64;;
66747;Laerm;53658;50.742;10.864;2022-09-01T11:09:33;37.14;29.92;41.06;;
66747;Laerm;53658;50.742;10.864;2022-09-01T11:15:06;36.97;28.67;41.22;;
66747;Laerm;53658;50.742;10.864;2022-09-01T11:20:26;36.70;28.67;41.75;;
66747;Laerm;53658;50.742;10.864;2022-09-01T11:25:42;36.68;26.91;41.06;;
66747;Laerm;53658;50.742;10.864;2022-09-01T11:33:41;37.11;29.92;42.22;;
66747;Laerm;53658;50.742;10.864;2022-09-01T11:38:49;37.01;31.68;40.03;;
66747;Laerm;53658;50.742;10.864;2022-09-01T11:41:29;37.04;28.67;40.71;;
66747;Laerm;53658;50.742;10.864;2022-09-01T11:44:01;37.10;30.89;39.92;;
66747;Laerm;53658;50.742;10.864;2022-09-01T11:46:34;37.21;31.68;40.71;;
66747;Laerm;53658;50.742;10.864;2022-09-01T11:49:07;37.09;30.89;40.43;;
66747;Laerm;53658;50.742;10.864;2022-09-01T11:51:45;37.14;29.92;41.30;;
66747;Laerm;53658;50.742;10.864;2022-09-01T11:54:13;37.05;30.89;40.23;;
66747;Laerm;53658;50.742;10.864;2022-09-01T11:56:40;37.14;31.68;40.80;;
66747;Laerm;53658;50.742;10.864;2022-09-01T11:59:06;37.37;29.92;41.53;;
66747;Laerm;53658;50.742;10.864;2022-09-01T12:01:35;37.17;28.67;41.68;;
66747;Laerm;53658;50.742;10.864;2022-09-01T12:04:23;37.16;28.67;40.89;;
66747;Laerm;53658;50.742;10.864;2022-09-01T12:07:13;36.87;28.67;40.33;;
66747;Laerm;53658;50.742;10.864;2022-09-01T12:09:48;36.93;29.92;40.43;;
66747;Laerm;53658;50.742;10.864;2022-09-01T12:12:32;37.01;28.67;40.03;;
66747;Laerm;53658;50.742;10.864;2022-09-01T12:17:29;36.92;29.92;40.54;;
66747;Laerm;53658;50.742;10.864;2022-09-01T12:19:55;37.15;30.89;42.09;;
66747;Laerm;53658;50.742;10.864;2022-09-01T12:22:21;37.30;29.92;41.61;;
66747;Laerm;53658;50.742;10.864;2022-09-01T12:24:52;37.13;29.92;41.53;;
66747;Laerm;53658;50.742;10.864;2022-09-01T12:27:20;37.15;31.68;41.46;;
66747;Laerm;53658;50.742;10.864;2022-09-01T12:29:50;37.09;30.89;40.03;;
66747;Laerm;53658;50.742;10.864;2022-09-01T12:32:17;37.09;29.92;41.22;;
66747;Laerm;53658;50.742;10.864;2022-09-01T12:35:13;37.07;29.92;40.23;;
66747;Laerm;53658;50.742;10.864;2022-09-01T12:37:32;37.17;31.68;40.89;;
66747;Laerm;53658;50.742;10.864;2022-09-01T12:39:58;37.18;30.89;40.43;;
66747;Laerm;53658;50.742;10.864;2022-09-01T12:42:33;37.21;28.67;40.62;;
66747;Laerm;53658;50.742;10.864;2022-09-01T12:45:05;37.38;30.89;42.36;;
66747;Laerm;53658;50.742;10.864;2022-09-01T12:52:57;37.64;30.89;42.03;;
66747;Laerm;53658;50.742;10.864;2022-09-01T12:55:30;37.47;30.89;45.11;;
66747;Laerm;53658;50.742;10.864;2022-09-01T12:57:59;37.33;29.92;41.03;;
66747;Laerm;53658;50.742;10.864;2022-09-01T13:00:29;37.52;30.89;41.82;;
66747;Laerm;53658;50.742;10.864;2022-09-01T13:05:37;37.18;31.68;41.06;;
66747;Laerm;53658;50.742;10.864;2022-09-01T13:08:11;37.13;30.89;40.33;;
66747;Laerm;53658;50.742;10.864;2022-09-01T13:13:10;37.13;30.89;41.30;;
66747;Laerm;53658;50.742;10.864;2022-09-01T13:15:40;37.22;29.92;41.06;;
66747;Laerm;53658;50.742;10.864;2022-09-01T13:18:08;37.26;29.92;41.38;;
66747;Laerm;53658;50.742;10.864;2022-09-01T13:20:35;37.08;29.92;40.53;;
66747;Laerm;53658;50.742;10.864;2022-09-01T13:23:01;37.28;29.92;42.29;;
66747;Laerm;53658;50.742;10.864;2022-09-01T13:25:27;37.23;26.91;41.22;;
66747;Laerm;53658;50.742;10.864;2022-09-01T13:27:53;37.11;31.68;42.53;;
66747;Laerm;53658;50.742;10.864;2022-09-01T13:30:22;37.15;29.92;40.98;;
66747;Laerm;53658;50.742;10.864;2022-09-01T13:32:49;37.02;29.92;40.03;;
66747;Laerm;53658;50.742;10.864;2022-09-01T13:35:19;37.02;29.92;40.13;;
66747;Laerm;53658;50.742;10.864;2022-09-01T13:37:46;37.04;30.89;41.53;;
66747;Laerm;53658;50.742;10.864;2022-09-01T13:40:13;37.04;29.92;40.89;;
66747;Laerm;53658;50.742;10.864;2022-09-01T13:42:45;37.17;30.89;40.53;;
66747;Laerm;53658;50.742;10.864;2022-09-01T13:45:13;37.17;29.92;41.38;;
66747;Laerm;53658;50.742;10.864;2022-09-01T13:47:42;37.01;29.92;40.33;;
66747;Laerm;53658;50.742;10.864;2022-09-01T13:50:10;37.02;29.92;40.13;;
66747;Laerm;53658;50.742;10.864;2022-09-01T13:52:50;36.92;28.67;39.99;;
66747;Laerm;53658;50.742;10.864;2022-09-01T13:55:26;37.17;29.92;42.41;;
66747;Laerm;53658;50.742;10.864;2022-09-01T13:57:53;37.04;30.89;42.98;;
66747;Laerm;53658;50.742;10.864;2022-09-01T14:00:23;37.71;29.92;43.19;;
66747;Laerm;53658;50.742;10.864;2022-09-01T14:02:52;37.22;23.90;41.89;;
66747;Laerm;53658;50.742;10.864;2022-09-01T14:05:28;36.98;30.89;41.14;;
66747;Laerm;53658;50.742;10.864;2022-09-01T14:07:55;36.81;26.91;40.23;;
66747;Laerm;53658;50.742;10.864;2022-09-01T14:10:22;36.83;29.92;40.71;;
66747;Laerm;53658;50.742;10.864;2022-09-01T14:12:49;37.24;30.89;42.93;;
66747;Laerm;53658;50.742;10.864;2022-09-01T14:15:17;36.84;26.91;40.03;;
66747;Laerm;53658;50.742;10.864;2022-09-01T14:17:46;36.75;28.67;40.53;;
66747;Laerm;53658;50.742;10.864;2022-09-01T14:20:19;36.48;29.57;39.70;;
66747;Laerm;53658;50.742;10.864;2022-09-01T14:22:47;36.51;26.91;39.58;;
66747;Laerm;53658;50.742;10.864;2022-09-01T14:25:14;36.51;23.90;39.81;;
66747;Laerm;53658;50.742;10.864;2022-09-01T14:27:41;36.57;26.91;40.03;;
66747;Laerm;53658;50.742;10.864;2022-09-01T14:30:10;36.70;29.92;40.23;;
66747;Laerm;53658;50.742;10.864;2022-09-01T14:32:36;36.80;29.92;40.13;;
66747;Laerm;53658;50.742;10.864;2022-09-01T14:35:03;36.86;28.67;40.23;;
66747;Laerm;53658;50.742;10.864;2022-09-01T14:37:35;36.84;28.67;40.13;;
66747;Laerm;53658;50.742;10.864;2022-09-01T14:40:02;36.98;26.91;40.13;;
66747;Laerm;53658;50.742;10.864;2022-09-01T14:42:30;37.03;30.89;40.03;;
66747;Laerm;53658;50.742;10.864;2022-09-01T14:44:57;37.17;29.92;42.09;;
66747;Laerm;53658;50.742;10.864;2022-09-01T14:47:23;37.83;28.67;43.28;;
66747;Laerm;53658;50.742;10.864;2022-09-01T14:49:51;37.82;29.92;42.88;;
66747;Laerm;53658;50.742;10.864;2022-09-01T14:52:18;37.67;28.67;43.19;;
66747;Laerm;53658;50.742;10.864;2022-09-01T14:54:47;37.78;30.89;42.59;;
66747;Laerm;53658;50.742;10.864;2022-09-01T14:57:13;37.87;29.92;42.88;;
66747;Laerm;53658;50.742;10.864;2022-09-01T14:59:39;37.21;26.91;42.76;;
66747;Laerm;53658;50.742;10.864;2022-09-01T15:02:08;36.81;28.67;41.03;;